カシュガル空港の過去48時間の天気

カシュガル空港 (Kashi)

現在時刻: 10/2 00:01 CST (10/1 16:01 UTC) 以下の時間は現地時間です。

過去48時間のMETAR気象情報
時間 風向 風速(m/s) 視程 気温(℃) 湿度(%) 気圧(hPa) 天気現象
1 23:00 不定 1 4000m 17 34 1019 風塵
1 22:00 西北西 1 4000m 17 32 1019 風塵
1 21:00 不定 1 4000m 18 30 1018 風塵
1 20:00 3 4000m 19 28 1018 風塵
1 19:00 南南東 4 4000m 20 28 1017 風塵
1 18:00 南南東 3 4000m 20 24 1017 風塵
1 17:00 2 3500m 20 26 1017 風塵
1 16:00 不定 1 3500m 19 26 1017 風塵
1 15:00 不定 1 3800m 19 28 1018 風塵
1 14:00 東南東 4 4200m 18 32 1018 風塵
1 13:00 不定 1 4300m 17 29 1019 風塵
1 12:00 北東 2 4000m 16 31 1019 風塵
1 11:00 北東 2 3700m 16 31 1019 風塵
1 10:00 東北東 2 5000m 15 36 1019 風塵
1 09:00 北東 1 5000m 15 45 1018 風塵
1 08:00 西 2 7000m 15 51 1018
1 07:00 南西 2 7000m 15 51 1018
1 06:00 北西 4 7000m 16 42 1017
1 05:00 西北西 5 6000m 16 39 1018
1 04:00 北北西 4 6000m 16 39 1017
1 03:00 北西 7 6000m 16 42 1018
1 02:00 北西 7 7000m 16 42 1017
1 01:00 北北西 5 7000m 17 34 1018
1 00:00 不定 2 5000m 18 32 1017
30 23:00 不定 1 3500m 18 30 1017 風塵
30 22:00 東北東 3 3500m 19 26 1016 風塵
30 21:00 北東 2 3500m 19 26 1016 風塵
30 20:00 北東 4 3500m 20 24 1015 風塵
30 19:00 北東 4 4500m 20 23 1015 風塵
30 18:00 東北東 5 4500m 20 24 1015 風塵
30 17:00 東北東 5 4500m 20 24 1015 風塵
30 16:00 5 4500m 20 24 1016 風塵
30 15:00 5 4500m 19 24 1017 風塵
30 14:00 東北東 4 2700m 18 28 1017 風塵
30 13:00 東北東 6 2700m 16 31 1018 風塵
30 12:00 北東 6 2400m 16 31 1018 風塵
30 11:00 北東 6 1800m 15 36 1018 風塵
30 10:00 北東 3 1600m 16 36 1018 風塵
30 09:00 北東 6 1600m 16 34 1017 風塵
30 08:00 北北東 4 2800m 16 36 1017 風塵
30 07:00 北東 3 2800m 17 36 1017 風塵
30 06:00 北北東 2 2800m 17 39 1017 風塵
30 05:00 静穏 0 2800m 17 42 1017 風塵
30 04:00 北北東 2 5000m 18 32 1017
ZWSH 011500Z VRB01MPS 4000 DU FEW040 17/01 Q1019 NOSIG
ZWSH 011400Z 30001MPS 4000 DU FEW040 17/00 Q1019 NOSIG
ZWSH 011300Z VRB01MPS 4000 DU FEW040 18/M00 Q1018 NOSIG
ZWSH 011200Z 17003MPS 4000 DU NSC 19/00 Q1018 NOSIG
ZWSH 011100Z 15004MPS 4000 DU NSC 20/01 Q1017 NOSIG
ZWSH 011000Z 16003MPS 4000 DU NSC 20/M01 Q1017 NOSIG
ZWSH 010900Z 19002MPS 150V250 3500 DU NSC 20/M00 Q1017 NOSIG
ZWSH 010800Z VRB01MPS 3500 DU NSC 19/M01 Q1017 NOSIG
ZWSH 010700Z VRB01MPS 3800 DU NSC 19/M00 Q1018 NOSIG
ZWSH 010600Z 11004MPS 090V150 4200 DU FEW040 18/01 Q1018 NOSIG
ZWSH 010500Z VRB01MPS 4300 DU SCT040 17/M01 Q1019 NOSIG
ZWSH 010400Z 04002MPS 010V130 4000 DU SCT040 16/M01 Q1019 NOSIG
ZWSH 010300Z 05002MPS 020V080 3700 DU SCT040 16/M01 Q1019 NOSIG
ZWSH 010200Z 06002MPS 5000 DU FEW040 15/M00 Q1019 NOSIG
ZWSH 010100Z 05001MPS 5000 DU FEW040 15/03 Q1018 NOSIG
ZWSH 010000Z 27002MPS 7000 FEW040 15/05 Q1018 NOSIG
ZWSH 302300Z 23002MPS 180V330 7000 FEW040 15/05 Q1018 NOSIG
ZWSH 302200Z 32004MPS 7000 SCT040 16/03 Q1017 NOSIG
ZWSH 302100Z 29005MPS 6000 SCT040 16/02 Q1018 NOSIG
ZWSH 302000Z 33004MPS 260V350 6000 SCT040 16/02 Q1017 NOSIG
ZWSH 301900Z AUTO 32007MPS 6000 // ////// 16/03 Q1018
ZWSH 301800Z AUTO 32007MPS 7000 // ////// 16/03 Q1017
ZWSH 301700Z AUTO 33005MPS 7000 // ////// 17/01 Q1018
ZWSH 301600Z AUTO VRB02MPS 5000 // ////// 18/01 Q1017
ZWSH 301500Z VRB01MPS 3500 DU BKN040 18/M00 Q1017 NOSIG
ZWSH 301400Z 06003MPS 3500 DU BKN040 19/M01 Q1016 NOSIG
ZWSH 301300Z 04002MPS 3500 DU BKN040 19/M01 Q1016 NOSIG
ZWSH 301200Z 04004MPS 3500 DU BKN040 20/M01 Q1015 NOSIG
ZWSH 301100Z 05004MPS 4500 DU BKN040 20/M02 Q1015 NOSIG
ZWSH 301000Z 06005MPS 4500 DU BKN040 20/M01 Q1015 NOSIG
ZWSH 300900Z 07005MPS 4500 DU BKN040 20/M01 Q1015 NOSIG
ZWSH 300800Z 08005MPS 020V110 4500 DU BKN040 20/M01 Q1016 NOSIG
ZWSH 300700Z 08005MPS 4500 DU BKN040 19/M02 Q1017 NOSIG
ZWSH 300600Z 06004MPS 030V130 2700 DU BKN040 18/M01 Q1017 NOSIG
ZWSH 300500Z 06006MPS 2700 DU BKN040 16/M01 Q1018 NOSIG
ZWSH 300400Z 05006MPS 2400 R26/1400VP2000D DU BKN040 16/M01 Q1018 NOSIG
ZWSH 300300Z 04006MPS 1800 DU BKN040 15/M00 Q1018 NOSIG
ZWSH 300200Z 05003MPS 1600 DU BKN040 16/01 Q1018 NOSIG
ZWSH 300100Z 04006MPS 1600 DU BKN040 16/00 Q1017 NOSIG
ZWSH 300000Z 03004MPS 020V140 2800 DU SCT040 16/01 Q1017 NOSIG
ZWSH 292300Z 05003MPS 2800 DU SCT040 17/02 Q1017 NOSIG
ZWSH 292200Z 03002MPS 010V160 2800 DU SCT040 17/03 Q1017 NOSIG
ZWSH 292100Z 00000MPS 2800 DU SCT040 17/04 Q1017 NOSIG
ZWSH 292000Z AUTO 03002MPS 5000 // ////// 18/01 Q1017